sensor_id;sensor_type;location;lat;lon;timestamp;temperature;humidity
66831;DHT22;53739;44.224;22.528;2023-02-11T00:27:26;89.70;6425.60
66831;DHT22;53739;44.224;22.528;2023-02-11T00:36:50;89.80;6425.60
66831;DHT22;53739;44.224;22.528;2023-02-11T00:39:21;89.70;6451.20
66831;DHT22;53739;44.224;22.528;2023-02-11T00:41:51;89.70;6425.60
66831;DHT22;53739;44.224;22.528;2023-02-11T00:44:22;89.70;6425.60
66831;DHT22;53739;44.224;22.528;2023-02-11T00:46:55;89.70;6425.60
66831;DHT22;53739;44.224;22.528;2023-02-11T00:49:29;89.60;6451.20
66831;DHT22;53739;44.224;22.528;2023-02-11T00:52:32;64.90;6451.20
66831;DHT22;53739;44.224;22.528;2023-02-11T01:02:15;64.50;6451.20
66831;DHT22;53739;44.224;22.528;2023-02-11T01:04:44;64.40;6451.20
66831;DHT22;53739;44.224;22.528;2023-02-11T01:07:16;64.20;6451.20
66831;DHT22;53739;44.224;22.528;2023-02-11T01:09:46;64.00;6451.20
66831;DHT22;53739;44.224;22.528;2023-02-11T01:16:12;13.70;128.00
66831;DHT22;53739;44.224;22.528;2023-02-11T01:18:59;13.30;6451.20
66831;DHT22;53739;44.224;22.528;2023-02-11T01:21:39;13.10;6451.20
66831;DHT22;53739;44.224;22.528;2023-02-11T01:24:31;12.90;6451.20
66831;DHT22;53739;44.224;22.528;2023-02-11T01:31:21;0.10;6451.20
66831;DHT22;53739;44.224;22.528;2023-02-11T01:43:35;0.40;6451.20
66831;DHT22;53739;44.224;22.528;2023-02-11T01:50:10;0.40;6451.20
66831;DHT22;53739;44.224;22.528;2023-02-11T01:52:55;0.50;6451.20
66831;DHT22;53739;44.224;22.528;2023-02-11T01:55:52;0.60;6451.20
66831;DHT22;53739;44.224;22.528;2023-02-11T01:58:58;0.50;6451.20
66831;DHT22;53739;44.224;22.528;2023-02-11T02:05:16;0.60;6451.20
66831;DHT22;53739;44.224;22.528;2023-02-11T02:08:10;0.70;6451.20
66831;DHT22;53739;44.224;22.528;2023-02-11T02:11:06;0.70;6451.20
66831;DHT22;53739;44.224;22.528;2023-02-11T02:13:44;0.70;6451.20
66831;DHT22;53739;44.224;22.528;2023-02-11T02:16:15;0.70;6451.20
66831;DHT22;53739;44.224;22.528;2023-02-11T02:22:26;0.80;6451.20
66831;DHT22;53739;44.224;22.528;2023-02-11T02:25:24;0.70;6451.20
66831;DHT22;53739;44.224;22.528;2023-02-11T02:31:24;0.70;6451.20
66831;DHT22;53739;44.224;22.528;2023-02-11T02:33:57;0.70;6451.20
66831;DHT22;53739;44.224;22.528;2023-02-11T02:39:35;0.60;6451.20
66831;DHT22;53739;44.224;22.528;2023-02-11T02:42:02;0.60;6451.20
66831;DHT22;53739;44.224;22.528;2023-02-11T02:44:30;0.70;6451.20
66831;DHT22;53739;44.224;22.528;2023-02-11T02:46:55;0.70;6451.20
66831;DHT22;53739;44.224;22.528;2023-02-11T02:49:21;0.70;6451.20
66831;DHT22;53739;44.224;22.528;2023-02-11T03:12:56;0.60;6451.20
66831;DHT22;53739;44.224;22.528;2023-02-11T03:15:26;0.60;6451.20
66831;DHT22;53739;44.224;22.528;2023-02-11T03:17:54;0.60;6451.20
66831;DHT22;53739;44.224;22.528;2023-02-11T03:20:22;0.60;6451.20
66831;DHT22;53739;44.224;22.528;2023-02-11T03:23:03;0.60;6451.20
66831;DHT22;53739;44.224;22.528;2023-02-11T03:25:40;0.60;6451.20
66831;DHT22;53739;44.224;22.528;2023-02-11T03:28:23;0.50;6451.20
66831;DHT22;53739;44.224;22.528;2023-02-11T03:31:12;0.50;6451.20
66831;DHT22;53739;44.224;22.528;2023-02-11T03:34:02;0.50;6451.20
66831;DHT22;53739;44.224;22.528;2023-02-11T03:36:40;0.40;6451.20
66831;DHT22;53739;44.224;22.528;2023-02-11T03:39:13;0.40;6451.20
66831;DHT22;53739;44.224;22.528;2023-02-11T03:41:41;0.40;6451.20
66831;DHT22;53739;44.224;22.528;2023-02-11T03:44:08;0.40;6451.20
66831;DHT22;53739;44.224;22.528;2023-02-11T03:46:37;0.40;6451.20
66831;DHT22;53739;44.224;22.528;2023-02-11T03:49:08;0.30;6451.20
66831;DHT22;53739;44.224;22.528;2023-02-11T03:51:35;0.30;6451.20
66831;DHT22;53739;44.224;22.528;2023-02-11T03:54:05;0.30;6451.20
66831;DHT22;53739;44.224;22.528;2023-02-11T03:56:48;0.30;6451.20
66831;DHT22;53739;44.224;22.528;2023-02-11T03:59:14;0.40;6451.20
66831;DHT22;53739;44.224;22.528;2023-02-11T04:01:39;0.40;6451.20
66831;DHT22;53739;44.224;22.528;2023-02-11T04:04:05;0.40;6451.20
66831;DHT22;53739;44.224;22.528;2023-02-11T04:06:31;0.40;6451.20
66831;DHT22;53739;44.224;22.528;2023-02-11T04:08:57;0.40;6451.20
66831;DHT22;53739;44.224;22.528;2023-02-11T04:11:22;0.40;6451.20
66831;DHT22;53739;44.224;22.528;2023-02-11T04:13:48;0.40;6451.20
66831;DHT22;53739;44.224;22.528;2023-02-11T04:16:14;0.30;6451.20
66831;DHT22;53739;44.224;22.528;2023-02-11T04:18:40;0.30;6451.20
66831;DHT22;53739;44.224;22.528;2023-02-11T04:21:05;0.30;6451.20
66831;DHT22;53739;44.224;22.528;2023-02-11T04:23:31;0.30;6451.20
66831;DHT22;53739;44.224;22.528;2023-02-11T04:25:57;0.20;6451.20
66831;DHT22;53739;44.224;22.528;2023-02-11T04:28:23;0.30;6451.20
66831;DHT22;53739;44.224;22.528;2023-02-11T04:30:49;0.40;6451.20
66831;DHT22;53739;44.224;22.528;2023-02-11T04:33:15;0.30;6451.20
66831;DHT22;53739;44.224;22.528;2023-02-11T04:35:41;0.40;6451.20
66831;DHT22;53739;44.224;22.528;2023-02-11T04:38:07;0.30;6451.20
66831;DHT22;53739;44.224;22.528;2023-02-11T04:40:33;0.40;6451.20
66831;DHT22;53739;44.224;22.528;2023-02-11T04:42:59;0.30;6451.20
66831;DHT22;53739;44.224;22.528;2023-02-11T04:45:24;0.30;6451.20
66831;DHT22;53739;44.224;22.528;2023-02-11T04:47:50;0.30;6451.20
66831;DHT22;53739;44.224;22.528;2023-02-11T04:50:16;0.30;6451.20
66831;DHT22;53739;44.224;22.528;2023-02-11T04:52:42;0.40;6451.20
66831;DHT22;53739;44.224;22.528;2023-02-11T04:55:07;0.30;6451.20
66831;DHT22;53739;44.224;22.528;2023-02-11T04:57:33;0.40;6451.20
66831;DHT22;53739;44.224;22.528;2023-02-11T04:59:59;0.40;6451.20
66831;DHT22;53739;44.224;22.528;2023-02-11T05:02:25;0.40;6451.20
66831;DHT22;53739;44.224;22.528;2023-02-11T05:04:50;0.40;6451.20
66831;DHT22;53739;44.224;22.528;2023-02-11T05:07:16;0.40;6451.20
66831;DHT22;53739;44.224;22.528;2023-02-11T05:09:42;0.30;6451.20
66831;DHT22;53739;44.224;22.528;2023-02-11T05:12:08;0.30;6451.20
66831;DHT22;53739;44.224;22.528;2023-02-11T05:14:34;0.30;6451.20
66831;DHT22;53739;44.224;22.528;2023-02-11T05:17:00;0.30;6451.20
66831;DHT22;53739;44.224;22.528;2023-02-11T05:19:26;0.20;6451.20
66831;DHT22;53739;44.224;22.528;2023-02-11T05:21:52;0.20;6451.20
66831;DHT22;53739;44.224;22.528;2023-02-11T05:24:19;0.20;6451.20
66831;DHT22;53739;44.224;22.528;2023-02-11T05:26:45;0.10;6451.20
66831;DHT22;53739;44.224;22.528;2023-02-11T05:29:11;0.20;6451.20
66831;DHT22;53739;44.224;22.528;2023-02-11T05:31:36;0.30;6451.20
66831;DHT22;53739;44.224;22.528;2023-02-11T05:34:02;0.30;6451.20
66831;DHT22;53739;44.224;22.528;2023-02-11T05:36:29;0.30;6451.20
66831;DHT22;53739;44.224;22.528;2023-02-11T05:38:54;0.30;6451.20
66831;DHT22;53739;44.224;22.528;2023-02-11T05:41:20;0.30;6451.20
66831;DHT22;53739;44.224;22.528;2023-02-11T05:43:49;0.40;6451.20
66831;DHT22;53739;44.224;22.528;2023-02-11T05:46:16;0.40;6451.20
66831;DHT22;53739;44.224;22.528;2023-02-11T05:48:42;0.40;6451.20
66831;DHT22;53739;44.224;22.528;2023-02-11T05:51:08;0.40;6451.20
66831;DHT22;53739;44.224;22.528;2023-02-11T05:53:34;0.50;6451.20
66831;DHT22;53739;44.224;22.528;2023-02-11T05:56:00;0.50;6451.20
66831;DHT22;53739;44.224;22.528;2023-02-11T05:58:26;0.50;6451.20
66831;DHT22;53739;44.224;22.528;2023-02-11T06:00:52;0.60;6451.20
66831;DHT22;53739;44.224;22.528;2023-02-11T06:03:18;0.60;6451.20
66831;DHT22;53739;44.224;22.528;2023-02-11T06:05:44;0.60;6451.20
66831;DHT22;53739;44.224;22.528;2023-02-11T06:08:10;0.60;6451.20
66831;DHT22;53739;44.224;22.528;2023-02-11T06:10:37;0.70;6451.20
66831;DHT22;53739;44.224;22.528;2023-02-11T06:13:03;0.70;6451.20
66831;DHT22;53739;44.224;22.528;2023-02-11T06:15:28;0.70;6451.20
66831;DHT22;53739;44.224;22.528;2023-02-11T06:17:55;0.70;6451.20
66831;DHT22;53739;44.224;22.528;2023-02-11T06:20:20;0.80;6451.20
66831;DHT22;53739;44.224;22.528;2023-02-11T06:22:46;0.90;6451.20
66831;DHT22;53739;44.224;22.528;2023-02-11T06:25:13;0.90;6451.20
66831;DHT22;53739;44.224;22.528;2023-02-11T06:27:39;25.60;6451.20
66831;DHT22;53739;44.224;22.528;2023-02-11T06:30:06;25.60;6451.20
66831;DHT22;53739;44.224;22.528;2023-02-11T06:32:32;25.70;6451.20
66831;DHT22;53739;44.224;22.528;2023-02-11T06:34:59;25.70;6451.20
66831;DHT22;53739;44.224;22.528;2023-02-11T06:37:25;25.80;6451.20
66831;DHT22;53739;44.224;22.528;2023-02-11T06:39:50;25.90;6451.20
66831;DHT22;53739;44.224;22.528;2023-02-11T06:42:16;25.90;6451.20
66831;DHT22;53739;44.224;22.528;2023-02-11T06:44:42;26.00;6451.20
66831;DHT22;53739;44.224;22.528;2023-02-11T06:47:09;26.10;6451.20
66831;DHT22;53739;44.224;22.528;2023-02-11T06:49:35;26.10;6451.20
66831;DHT22;53739;44.224;22.528;2023-02-11T06:52:01;26.20;6451.20
66831;DHT22;53739;44.224;22.528;2023-02-11T06:54:27;26.30;6451.20
66831;DHT22;53739;44.224;22.528;2023-02-11T06:56:53;26.30;6451.20
66831;DHT22;53739;44.224;22.528;2023-02-11T06:59:19;26.50;6451.20
66831;DHT22;53739;44.224;22.528;2023-02-11T07:01:45;51.20;6476.80
66831;DHT22;53739;44.224;22.528;2023-02-11T07:04:11;51.30;6476.80
66831;DHT22;53739;44.224;22.528;2023-02-11T07:06:39;51.50;6476.80
66831;DHT22;53739;44.224;22.528;2023-02-11T07:09:06;51.60;6476.80
66831;DHT22;53739;44.224;22.528;2023-02-11T07:11:32;51.60;6476.80
66831;DHT22;53739;44.224;22.528;2023-02-11T07:14:04;51.70;6476.80
66831;DHT22;53739;44.224;22.528;2023-02-11T07:16:31;51.90;6476.80
66831;DHT22;53739;44.224;22.528;2023-02-11T07:18:57;52.10;6476.80
66831;DHT22;53739;44.224;22.528;2023-02-11T07:21:22;52.10;6476.80
66831;DHT22;53739;44.224;22.528;2023-02-11T07:23:49;76.80;6476.80
66831;DHT22;53739;44.224;22.528;2023-02-11T07:26:18;76.90;6476.80
66831;DHT22;53739;44.224;22.528;2023-02-11T07:28:44;77.10;6476.80
66831;DHT22;53739;44.224;22.528;2023-02-11T07:31:24;77.20;6476.80
66831;DHT22;53739;44.224;22.528;2023-02-11T07:33:52;77.20;6476.80
66831;DHT22;53739;44.224;22.528;2023-02-11T07:36:18;77.30;6476.80
66831;DHT22;53739;44.224;22.528;2023-02-11T07:38:44;77.30;6476.80
66831;DHT22;53739;44.224;22.528;2023-02-11T07:41:13;77.60;6476.80
66831;DHT22;53739;44.224;22.528;2023-02-11T07:43:40;102.40;6476.80
66831;DHT22;53739;44.224;22.528;2023-02-11T07:46:11;102.50;6476.80
66831;DHT22;53739;44.224;22.528;2023-02-11T07:48:37;102.70;6476.80
66831;DHT22;53739;44.224;22.528;2023-02-11T07:51:12;102.70;6476.80
66831;DHT22;53739;44.224;22.528;2023-02-11T07:53:38;102.90;6476.80
66831;DHT22;53739;44.224;22.528;2023-02-11T07:56:05;102.90;6476.80
66831;DHT22;53739;44.224;22.528;2023-02-11T07:58:31;102.90;6476.80
66831;DHT22;53739;44.224;22.528;2023-02-11T08:01:02;102.90;6476.80
66831;DHT22;53739;44.224;22.528;2023-02-11T08:03:28;103.00;6476.80
66831;DHT22;53739;44.224;22.528;2023-02-11T08:05:54;103.20;6476.80
66831;DHT22;53739;44.224;22.528;2023-02-11T08:08:20;103.30;6476.80
66831;DHT22;53739;44.224;22.528;2023-02-11T08:10:45;103.20;6476.80
66831;DHT22;53739;44.224;22.528;2023-02-11T08:13:11;103.20;6476.80
66831;DHT22;53739;44.224;22.528;2023-02-11T08:15:37;128.00;6502.40
66831;DHT22;53739;44.224;22.528;2023-02-11T08:18:02;103.20;6476.80
66831;DHT22;53739;44.224;22.528;2023-02-11T08:20:28;103.00;6476.80
66831;DHT22;53739;44.224;22.528;2023-02-11T08:22:54;103.20;6476.80
66831;DHT22;53739;44.224;22.528;2023-02-11T08:25:20;128.00;6502.40
66831;DHT22;53739;44.224;22.528;2023-02-11T08:27:45;128.00;6502.40
66831;DHT22;53739;44.224;22.528;2023-02-11T08:30:11;128.10;6502.40
66831;DHT22;53739;44.224;22.528;2023-02-11T08:32:37;128.10;6502.40
66831;DHT22;53739;44.224;22.528;2023-02-11T08:35:04;128.20;6502.40
66831;DHT22;53739;44.224;22.528;2023-02-11T08:37:32;128.40;6502.40
66831;DHT22;53739;44.224;22.528;2023-02-11T08:39:58;128.40;6502.40
66831;DHT22;53739;44.224;22.528;2023-02-11T08:42:24;128.70;6502.40
66831;DHT22;53739;44.224;22.528;2023-02-11T08:44:49;128.90;6502.40
66831;DHT22;53739;44.224;22.528;2023-02-11T08:47:15;128.70;6502.40
66831;DHT22;53739;44.224;22.528;2023-02-11T08:49:41;128.90;6502.40
66831;DHT22;53739;44.224;22.528;2023-02-11T08:52:07;153.60;6502.40
66831;DHT22;53739;44.224;22.528;2023-02-11T08:54:33;153.60;6502.40
66831;DHT22;53739;44.224;22.528;2023-02-11T08:56:59;153.70;6502.40
66831;DHT22;53739;44.224;22.528;2023-02-11T08:59:26;153.80;6502.40
66831;DHT22;53739;44.224;22.528;2023-02-11T09:01:52;154.10;6502.40
66831;DHT22;53739;44.224;22.528;2023-02-11T09:04:18;154.50;6502.40
66831;DHT22;53739;44.224;22.528;2023-02-11T09:06:44;179.40;6502.40
66831;DHT22;53739;44.224;22.528;2023-02-11T09:09:14;179.50;6502.40
66831;DHT22;53739;44.224;22.528;2023-02-11T09:11:41;179.40;6502.40
66831;DHT22;53739;44.224;22.528;2023-02-11T09:14:07;179.20;6502.40
66831;DHT22;53739;44.224;22.528;2023-02-11T09:16:35;179.60;6502.40
66831;DHT22;53739;44.224;22.528;2023-02-11T09:19:02;179.60;6502.40
66831;DHT22;53739;44.224;22.528;2023-02-11T09:21:30;180.00;6502.40
66831;DHT22;53739;44.224;22.528;2023-02-11T09:23:56;180.10;6502.40
66831;DHT22;53739;44.224;22.528;2023-02-11T09:26:27;179.90;6502.40
66831;DHT22;53739;44.224;22.528;2023-02-11T09:28:53;179.90;6502.40
66831;DHT22;53739;44.224;22.528;2023-02-11T09:31:22;180.00;6502.40
66831;DHT22;53739;44.224;22.528;2023-02-11T09:33:50;204.90;6502.40
66831;DHT22;53739;44.224;22.528;2023-02-11T09:36:19;204.80;6502.40
66831;DHT22;53739;44.224;22.528;2023-02-11T09:38:46;180.10;6502.40
66831;DHT22;53739;44.224;22.528;2023-02-11T09:44:27;180.10;6502.40
66831;DHT22;53739;44.224;22.528;2023-02-11T09:47:22;204.90;537.60
66831;DHT22;53739;44.224;22.528;2023-02-11T09:49:51;205.00;6502.40
66831;DHT22;53739;44.224;22.528;2023-02-11T09:55:32;205.10;486.40
66831;DHT22;53739;44.224;22.528;2023-02-11T09:58:03;205.40;563.20
66831;DHT22;53739;44.224;22.528;2023-02-11T10:00:42;205.40;512.00
66831;DHT22;53739;44.224;22.528;2023-02-11T10:09:01;205.50;460.80
66831;DHT22;53739;44.224;22.528;2023-02-11T10:15:02;205.50;486.40
66831;DHT22;53739;44.224;22.528;2023-02-11T10:20:32;205.50;486.40
66831;DHT22;53739;44.224;22.528;2023-02-11T10:23:04;205.50;486.40
66831;DHT22;53739;44.224;22.528;2023-02-11T10:25:38;205.30;563.20
66831;DHT22;53739;44.224;22.528;2023-02-11T10:28:16;205.30;512.00
66831;DHT22;53739;44.224;22.528;2023-02-11T10:33:16;230.40;486.40
66831;DHT22;53739;44.224;22.528;2023-02-11T10:35:44;230.50;409.60
66831;DHT22;53739;44.224;22.528;2023-02-11T10:38:11;230.50;409.60
66831;DHT22;53739;44.224;22.528;2023-02-11T10:40:37;230.40;512.00
66831;DHT22;53739;44.224;22.528;2023-02-11T10:43:06;230.50;486.40
66831;DHT22;53739;44.224;22.528;2023-02-11T10:45:51;230.60;332.80
66831;DHT22;53739;44.224;22.528;2023-02-11T10:53:38;230.50;435.20
66831;DHT22;53739;44.224;22.528;2023-02-11T10:56:05;230.50;460.80
66831;DHT22;53739;44.224;22.528;2023-02-11T10:58:45;230.50;435.20
66831;DHT22;53739;44.224;22.528;2023-02-11T11:01:18;230.70;332.80
66831;DHT22;53739;44.224;22.528;2023-02-11T11:03:47;230.60;486.40
66831;DHT22;53739;44.224;22.528;2023-02-11T11:06:13;230.70;332.80
66831;DHT22;53739;44.224;22.528;2023-02-11T11:08:45;230.70;409.60
66831;DHT22;53739;44.224;22.528;2023-02-11T11:11:20;230.80;409.60
66831;DHT22;53739;44.224;22.528;2023-02-11T11:16:32;230.70;384.00
66831;DHT22;53739;44.224;22.528;2023-02-11T11:21:46;230.60;332.80
66831;DHT22;53739;44.224;22.528;2023-02-11T11:24:32;230.70;409.60
66831;DHT22;53739;44.224;22.528;2023-02-11T11:27:01;230.60;332.80
66831;DHT22;53739;44.224;22.528;2023-02-11T11:32:09;230.70;307.20
66831;DHT22;53739;44.224;22.528;2023-02-11T11:34:36;230.80;358.40
66831;DHT22;53739;44.224;22.528;2023-02-11T11:37:22;230.70;332.80
66831;DHT22;53739;44.224;22.528;2023-02-11T11:40:08;230.60;307.20
66831;DHT22;53739;44.224;22.528;2023-02-11T11:42:36;230.70;307.20
66831;DHT22;53739;44.224;22.528;2023-02-11T11:45:23;230.90;307.20
66831;DHT22;53739;44.224;22.528;2023-02-11T11:53:40;230.70;281.60
66831;DHT22;53739;44.224;22.528;2023-02-11T11:56:19;230.90;332.80
66831;DHT22;53739;44.224;22.528;2023-02-11T11:58:46;230.70;358.40
66831;DHT22;53739;44.224;22.528;2023-02-11T12:01:33;230.60;332.80
66831;DHT22;53739;44.224;22.528;2023-02-11T12:04:24;230.60;409.60
66831;DHT22;53739;44.224;22.528;2023-02-11T12:12:59;230.80;256.00
66831;DHT22;53739;44.224;22.528;2023-02-11T12:16:17;231.00;256.00
66831;DHT22;53739;44.224;22.528;2023-02-11T12:18:39;230.90;256.00
66831;DHT22;53739;44.224;22.528;2023-02-11T12:27:19;231.20;204.80
66831;DHT22;53739;44.224;22.528;2023-02-11T12:33:22;230.90;256.00
66831;DHT22;53739;44.224;22.528;2023-02-11T12:38:41;231.00;179.20
66831;DHT22;53739;44.224;22.528;2023-02-11T12:47:04;231.00;256.00
66831;DHT22;53739;44.224;22.528;2023-02-11T12:55:29;230.80;179.20
66831;DHT22;53739;44.224;22.528;2023-02-11T12:57:57;230.90;153.60
66831;DHT22;53739;44.224;22.528;2023-02-11T13:00:47;231.00;153.60
66831;DHT22;53739;44.224;22.528;2023-02-11T13:03:39;230.80;179.20
66831;DHT22;53739;44.224;22.528;2023-02-11T13:06:14;230.80;153.60
66831;DHT22;53739;44.224;22.528;2023-02-11T13:11:20;230.80;153.60
66831;DHT22;53739;44.224;22.528;2023-02-11T13:21:40;230.70;128.00
66831;DHT22;53739;44.224;22.528;2023-02-11T13:32:17;230.50;128.00
66831;DHT22;53739;44.224;22.528;2023-02-11T13:37:35;230.40;128.00
66831;DHT22;53739;44.224;22.528;2023-02-11T13:40:22;205.60;128.00
66831;DHT22;53739;44.224;22.528;2023-02-11T13:42:51;205.60;128.00
66831;DHT22;53739;44.224;22.528;2023-02-11T13:47:58;205.60;128.00
66831;DHT22;53739;44.224;22.528;2023-02-11T13:50:25;205.50;128.00
66831;DHT22;53739;44.224;22.528;2023-02-11T13:53:01;205.40;128.00
66831;DHT22;53739;44.224;22.528;2023-02-11T13:55:27;205.30;153.60
66831;DHT22;53739;44.224;22.528;2023-02-11T14:03:16;205.20;128.00
66831;DHT22;53739;44.224;22.528;2023-02-11T14:14:29;205.00;153.60
66831;DHT22;53739;44.224;22.528;2023-02-11T14:19:42;204.90;128.00
66831;DHT22;53739;44.224;22.528;2023-02-11T14:27:10;180.10;128.00
66831;DHT22;53739;44.224;22.528;2023-02-11T14:32:53;179.80;153.60
66831;DHT22;53739;44.224;22.528;2023-02-11T14:35:31;179.80;153.60
66831;DHT22;53739;44.224;22.528;2023-02-11T14:38:30;179.80;153.60
66831;DHT22;53739;44.224;22.528;2023-02-11T14:41:23;179.70;128.00
66831;DHT22;53739;44.224;22.528;2023-02-11T14:43:52;179.60;153.60
66831;DHT22;53739;44.224;22.528;2023-02-11T14:46:22;179.40;153.60
66831;DHT22;53739;44.224;22.528;2023-02-11T14:48:51;179.40;128.00
66831;DHT22;53739;44.224;22.528;2023-02-11T14:53:48;179.40;153.60
66831;DHT22;53739;44.224;22.528;2023-02-11T14:56:24;179.20;153.60
66831;DHT22;53739;44.224;22.528;2023-02-11T14:58:52;154.50;153.60
66831;DHT22;53739;44.224;22.528;2023-02-11T15:01:38;154.40;179.20
66831;DHT22;53739;44.224;22.528;2023-02-11T15:04:20;154.30;179.20
66831;DHT22;53739;44.224;22.528;2023-02-11T15:06:47;154.20;179.20
66831;DHT22;53739;44.224;22.528;2023-02-11T15:12:02;154.10;179.20
66831;DHT22;53739;44.224;22.528;2023-02-11T15:14:35;154.00;153.60
66831;DHT22;53739;44.224;22.528;2023-02-11T15:17:04;153.90;153.60
66831;DHT22;53739;44.224;22.528;2023-02-11T15:19:40;153.80;128.00
66831;DHT22;53739;44.224;22.528;2023-02-11T15:22:18;153.80;179.20
66831;DHT22;53739;44.224;22.528;2023-02-11T15:27:52;153.70;153.60
66831;DHT22;53739;44.224;22.528;2023-02-11T15:32:59;153.60;153.60
66831;DHT22;53739;44.224;22.528;2023-02-11T15:37:57;128.90;179.20
66831;DHT22;53739;44.224;22.528;2023-02-11T15:40:26;128.80;153.60
66831;DHT22;53739;44.224;22.528;2023-02-11T15:43:02;128.70;128.00
66831;DHT22;53739;44.224;22.528;2023-02-11T15:48:37;128.60;153.60
66831;DHT22;53739;44.224;22.528;2023-02-11T15:54:05;128.40;153.60
66831;DHT22;53739;44.224;22.528;2023-02-11T15:56:38;128.30;128.00
66831;DHT22;53739;44.224;22.528;2023-02-11T15:59:19;128.20;153.60
66831;DHT22;53739;44.224;22.528;2023-02-11T16:01:48;128.20;153.60
66831;DHT22;53739;44.224;22.528;2023-02-11T16:04:19;128.10;128.00
66831;DHT22;53739;44.224;22.528;2023-02-11T16:06:46;128.10;153.60
66831;DHT22;53739;44.224;22.528;2023-02-11T16:17:08;128.00;153.60
66831;DHT22;53739;44.224;22.528;2023-02-11T16:19:35;103.30;128.00
66831;DHT22;53739;44.224;22.528;2023-02-11T16:22:10;103.30;128.00
66831;DHT22;53739;44.224;22.528;2023-02-11T16:24:39;103.30;128.00
66831;DHT22;53739;44.224;22.528;2023-02-11T16:27:38;103.30;128.00
66831;DHT22;53739;44.224;22.528;2023-02-11T16:30:05;103.20;179.20
66831;DHT22;53739;44.224;22.528;2023-02-11T16:32:34;103.10;153.60
66831;DHT22;53739;44.224;22.528;2023-02-11T16:35:00;103.00;153.60
66831;DHT22;53739;44.224;22.528;2023-02-11T16:37:26;102.90;128.00
66831;DHT22;53739;44.224;22.528;2023-02-11T16:39:55;103.00;153.60
66831;DHT22;53739;44.224;22.528;2023-02-11T16:42:22;102.90;153.60
66831;DHT22;53739;44.224;22.528;2023-02-11T16:44:48;102.90;128.00
66831;DHT22;53739;44.224;22.528;2023-02-11T16:47:33;102.80;153.60
66831;DHT22;53739;44.224;22.528;2023-02-11T16:50:00;102.80;179.20
66831;DHT22;53739;44.224;22.528;2023-02-11T16:52:27;102.80;153.60
66831;DHT22;53739;44.224;22.528;2023-02-11T16:54:55;102.80;179.20
66831;DHT22;53739;44.224;22.528;2023-02-11T16:57:23;102.80;128.00
66831;DHT22;53739;44.224;22.528;2023-02-11T16:59:50;102.80;179.20
66831;DHT22;53739;44.224;22.528;2023-02-11T17:02:26;102.80;153.60
66831;DHT22;53739;44.224;22.528;2023-02-11T17:04:54;102.80;153.60
66831;DHT22;53739;44.224;22.528;2023-02-11T17:07:21;102.70;179.20
66831;DHT22;53739;44.224;22.528;2023-02-11T17:09:46;102.80;153.60
66831;DHT22;53739;44.224;22.528;2023-02-11T17:12:12;102.80;179.20
66831;DHT22;53739;44.224;22.528;2023-02-11T17:14:38;102.80;153.60
66831;DHT22;53739;44.224;22.528;2023-02-11T17:17:03;102.70;179.20
66831;DHT22;53739;44.224;22.528;2023-02-11T17:19:29;102.70;179.20
66831;DHT22;53739;44.224;22.528;2023-02-11T17:21:55;102.60;179.20
66831;DHT22;53739;44.224;22.528;2023-02-11T17:24:21;102.70;179.20
66831;DHT22;53739;44.224;22.528;2023-02-11T17:26:48;102.70;204.80
66831;DHT22;53739;44.224;22.528;2023-02-11T17:29:17;102.70;179.20
66831;DHT22;53739;44.224;22.528;2023-02-11T17:31:43;102.60;204.80
66831;DHT22;53739;44.224;22.528;2023-02-11T17:34:10;102.60;204.80
66831;DHT22;53739;44.224;22.528;2023-02-11T17:36:35;102.60;204.80
66831;DHT22;53739;44.224;22.528;2023-02-11T17:39:03;102.60;204.80
66831;DHT22;53739;44.224;22.528;2023-02-11T17:41:29;102.70;204.80
66831;DHT22;53739;44.224;22.528;2023-02-11T17:43:59;102.70;204.80
66831;DHT22;53739;44.224;22.528;2023-02-11T17:46:26;102.70;230.40
66831;DHT22;53739;44.224;22.528;2023-02-11T17:48:57;102.70;179.20
66831;DHT22;53739;44.224;22.528;2023-02-11T17:51:34;102.80;230.40
66831;DHT22;53739;44.224;22.528;2023-02-11T17:54:04;102.80;230.40
66831;DHT22;53739;44.224;22.528;2023-02-11T17:56:34;102.80;230.40
66831;DHT22;53739;44.224;22.528;2023-02-11T17:59:00;102.80;230.40
66831;DHT22;53739;44.224;22.528;2023-02-11T18:01:31;102.80;230.40
66831;DHT22;53739;44.224;22.528;2023-02-11T18:03:57;102.90;230.40
66831;DHT22;53739;44.224;22.528;2023-02-11T18:06:22;102.90;204.80
66831;DHT22;53739;44.224;22.528;2023-02-11T18:08:48;102.90;230.40
66831;DHT22;53739;44.224;22.528;2023-02-11T18:11:16;102.90;204.80
66831;DHT22;53739;44.224;22.528;2023-02-11T18:13:43;102.90;230.40
66831;DHT22;53739;44.224;22.528;2023-02-11T18:16:10;102.90;230.40
66831;DHT22;53739;44.224;22.528;2023-02-11T18:18:43;102.90;230.40
66831;DHT22;53739;44.224;22.528;2023-02-11T18:21:13;102.80;256.00
66831;DHT22;53739;44.224;22.528;2023-02-11T18:23:40;102.80;256.00
66831;DHT22;53739;44.224;22.528;2023-02-11T18:26:06;102.80;256.00
66831;DHT22;53739;44.224;22.528;2023-02-11T18:28:32;102.90;281.60
66831;DHT22;53739;44.224;22.528;2023-02-11T18:30:59;102.80;281.60
66831;DHT22;53739;44.224;22.528;2023-02-11T18:33:25;102.90;281.60
66831;DHT22;53739;44.224;22.528;2023-02-11T18:35:51;102.80;307.20
66831;DHT22;53739;44.224;22.528;2023-02-11T18:38:17;102.80;307.20
66831;DHT22;53739;44.224;22.528;2023-02-11T18:40:47;102.80;307.20
66831;DHT22;53739;44.224;22.528;2023-02-11T18:43:15;102.80;332.80
66831;DHT22;53739;44.224;22.528;2023-02-11T18:45:50;102.80;332.80
66831;DHT22;53739;44.224;22.528;2023-02-11T18:48:16;102.80;332.80
66831;DHT22;53739;44.224;22.528;2023-02-11T18:50:44;102.80;332.80
66831;DHT22;53739;44.224;22.528;2023-02-11T18:53:12;102.80;358.40
66831;DHT22;53739;44.224;22.528;2023-02-11T18:55:43;102.80;384.00
66831;DHT22;53739;44.224;22.528;2023-02-11T18:58:09;102.80;409.60
66831;DHT22;53739;44.224;22.528;2023-02-11T19:00:36;102.70;409.60
66831;DHT22;53739;44.224;22.528;2023-02-11T19:03:03;102.70;460.80
66831;DHT22;53739;44.224;22.528;2023-02-11T19:05:29;102.70;460.80
66831;DHT22;53739;44.224;22.528;2023-02-11T19:07:59;102.70;486.40
66831;DHT22;53739;44.224;22.528;2023-02-11T19:10:25;102.70;486.40
66831;DHT22;53739;44.224;22.528;2023-02-11T19:12:55;102.70;537.60